Ashland, TX

10:14 AM CST on January 28, 2015 (GMT -0600)
Hillside Heights | Change Station
CLOSE
Current Station
Personal Weather Station
Location: Longview, TX
Elevation: 357 ft
Nearby Weather Stations

Elev 357 ft 32.57 °N, 94.69 °W | Updated 8 seconds ago

Clear
Clear
64.4 °F
Feels Like 64.4 °F
N
3.4
Wind Variable Wind from SW
Gusts 8.3 mph

Today
High -- | Low -- °F
--% Chance of Precip.
Yesterday
High -- | Low -- °F
Precip. -- in
7:16 AM 5:47 PM
Waxing Gibbous, 66% visible
Pressure 30.18 in
Visibility 10.0 miles
Clouds Clear
Dew Point 44 °F
Humidity 48%
Rainfall 0.00 in
Snow Depth Not available.
UV 2 out of 12
Pollen 7.70 out of 12
Air Quality Not available.
Flu Activity Not available.
METAR KJXI 281555Z AUTO 17010KT 10SM CLR 17/07 A3018 RMK AO2 T01700074

More Conditions Fewer Conditions

Pressure 30.18 in
Visibility 10.0 miles
Clouds Clear
Dew Point 44 °F
Humidity 48%
Rainfall 0.00 in
Snow Depth Not available.
UV 2 out of 12
Pollen 7.70 out of 12
Air Quality Not available.
Flu Activity Not available.
METAR KJXI 281555Z AUTO 17010KT 10SM CLR 17/07 A3018 RMK AO2 T01700074

More Conditions Fewer Conditions

10-Day Weather Forecast

Almanac

Astronomy

Jan. 28, 2015 Rise Set
Actual Time
Civil Twilight
Nautical Twilight
Astronomical Twilight
Moon
Length of Visible Light
Length of Day
Tomorrow will be .
, % of the Moon is Illuminated

Today's Extremes

State Highs State Lows

Community

WunderPhotos

Upload Photos

1,791,189 photos uploaded!

WunderBlogs® & News

Nearby

Air Quality

  Air Quality AQ Index Pollutant
Not available.

Snow Depth

Station Depth Elevation

Earthquake Activity

City Distance Mag. Time & Date
Minimum magnitude displayed is 2.5.

Coastal Water Temperatures

Place Temperature

Nearby Weather Stations